РУС

ENG

 
  Pireps - S7
 

Рейс SBI6008

  • Выполнял: Dmitry Schcurov
  • Аэропорт отправления: (UUBC)
  • Аэропорт назначения: Pulkovo Airport (ULLI)
  • Тип ВС: E170 (VQ-BYA)
  • Время полёта: 03.20
  • Дата полёта: 01.08.2020
  • Маршрут: GITIK L169 SUGIR R369 AJ R900 LANSO R962 GENPA
  • Статус: Одобрен

Детали полёта
Gross Revenue:
(70 load / $ 95.00 per unit
$ 6, 650.00
Fuel Cost:
(2413 fuel used @ 5.1 / unit)
$ 12, 306.30


Дополнительная информация о полёте:

Лог

Aircraft Used in flight is Embraer 170 Air Canada
14:36 Beacon Lights ON at 670 AGL
14:38 Brakes are Released
14:38 Pushing back
14:39 Engine 1 Started
14:39 Brakes are On
14:40 Engine 2 Started
14:40Flaps 1 Selected at 670ft and 0kts
14:41 Taxi Lights ON at 670 AGL
14:41 Brakes are Released
14:45 Landing Lights ON at 670 AGL
14:45 Taxi Lights OFF at 670 AGL
14:45 Strobe Lights ON at 670 AGL
14:46 You Took off @ 153 Knots and Flaps at Position 1
Departure Weather
UUBC 011130Z 22003MPS 130V300 9999 SCT043 19/10 Q1004 R31/CLRD60 NOSIG RMK QFE736/0982
14:47 Landing Gear Up @ 160 Knots and 810 Feet
14:48Flaps Retracted at 4790ft and 206kts
14:49 Landing Lights OFF at 7250 AGL
14:50 You exceeded maximum bank angle
15:51Flaps 1 Selected at 6040ft and 232kts
15:51Flaps 2 Selected at 5290ft and 216kts
15:52Flaps 3 Selected at 5170ft and 201kts
15:52 Landing Lights ON at 4140 AGL
15:54 Landing Gear Down @ 158 Knots and 2500 Feet
15:56Flaps 4 Selected at 1990ft and 155kts
15:56Flaps 6 Selected at 1970ft and 150kts
16:00 You Landed @ 152 Knots and with 0 Vertical Speed
Arrival Weather
ULLI 011100Z 04005MPS 9999 BKN036 17/09 Q1013 R10R/090060 NOSIG
16:00 Taxiing to gate
16:00 Landing Lights OFF at 90 AGL
16:00 Taxi Lights ON at 90 AGL
16:00 Strobe Lights OFF at 90 AGL
16:01Flaps Retracted at 90ft and 18kts
16:05 Brakes are On
16:05 Taxi Lights OFF at 90 AGL
16:05 Engine 1 Stoped
16:05 Engine 2 Stoped
16:05 Beacon Lights OFF at 90 AGL
Pirep logged with S7 Tracking 1.0.0.14


!!! Превышение допустимого значения вертикальной скорости при посадке: -5%


Общая оценка полета : 95%




Route Map



 
 
   
 
Новости

23.01.2020 - Работа сайта!

Друзья! 
После долгого перерыва работы сайта - мы занялись его оживлением.
Были жалобы, что не работала регистрация. Теперь работает!
Будут исправляться другие моменты и функционал снова будет доступен в полном объеме.
От лица администрации сайта и компании - приносим свои извинения за неудобства!
Добро пожаловать в S7!

   
 
Авторизация






Регистрация

Восстановить пароль?

Мы в соц. сетях

      



   
 





   
 


   
 


Яндекс.Метрика

www.va-s7.ru 2011-2020
Все права защищены.



Минуточку внимания!
Мы не имеем отношения к торговым маркам "S7" и "Globus" и их представителям.
Эмблемы на сайте являются собственностью соответствующих компаний.

аэронавигационная метеорологическая и любая другая информация с данного ресурса ни в коем случае не должна использоваться для реальных полетов